Terminal Aerodrome Forecast
Issued by NWS Shreveport, LA

Home | Current Version | Previous Version | Text Only | Print | Product List | Glossary On
Versions: 1 2 3 4 5 6 7 8 9 10 11 12 13
000
FTUS44 KSHV 210520
TAFTYR
TAF
KTYR 210520Z 2106/2206 12006KT P6SM FEW030 SCT150
     FM211500 13011KT P6SM BKN030
     FM211800 14015G22KT P6SM VCTS SCT015 OVC030CB
     FM212100 14012KT 5SM TSRA BR SCT010 OVC020CB
     FM220400 VRB06KT P6SM VCSH OVC020=

USA.gov is the U.S. government's official web portal to all federal, state and local government web resources and services.